createdAt,value
2022-11-30T00:01:20.828Z,102279.34
2022-11-30T00:03:48.563Z,102283.72
2022-11-30T00:06:23.314Z,102278.28
2022-11-30T00:08:55.109Z,102288.84
2022-11-30T00:11:22.915Z,102292.19
2022-11-30T00:13:50.135Z,102297.38
2022-11-30T00:16:16.942Z,102286.06
2022-11-30T00:18:44.020Z,102286.06
2022-11-30T00:21:13.153Z,102289.41
2022-11-30T00:23:41.942Z,102284.19
2022-11-30T00:26:11.608Z,102286.56
2022-11-30T00:28:40.079Z,102299.63
2022-11-30T00:31:10.852Z,102297.84
2022-11-30T00:33:38.983Z,102289.94
2022-11-30T00:36:08.710Z,102295.97
2022-11-30T00:38:36.121Z,102291.50
2022-11-30T00:41:03.579Z,102304.59
2022-11-30T00:43:30.935Z,102298.47
2022-11-30T00:45:58.238Z,102293.28
2022-11-30T00:48:25.343Z,102287.13
2022-11-30T00:50:52.240Z,102295.69
2022-11-30T00:53:19.848Z,102295.69
2022-11-30T00:55:47.080Z,102295.88
2022-11-30T00:58:14.322Z,102290.69
2022-11-30T01:00:41.776Z,102294.09
2022-11-30T01:03:08.714Z,102294.91
2022-11-30T01:05:35.632Z,102298.31
2022-11-30T01:08:03.681Z,102300.91
2022-11-30T01:10:30.832Z,102293.00
2022-11-30T01:12:57.644Z,102296.44
2022-11-30T01:15:24.153Z,102296.16
2022-11-30T01:17:51.086Z,102296.25
2022-11-30T01:20:20.062Z,102300.56
2022-11-30T01:22:46.723Z,102300.41
2022-11-30T01:25:16.305Z,102307.38
2022-11-30T01:27:43.481Z,102305.69
2022-11-30T01:30:10.998Z,102312.56
2022-11-30T01:32:38.000Z,102309.00
2022-11-30T01:35:05.838Z,102307.19
2022-11-30T01:37:35.311Z,102297.72
2022-11-30T01:40:02.228Z,102304.78
2022-11-30T01:42:29.130Z,102308.09
2022-11-30T01:44:58.777Z,102310.59
2022-11-30T01:47:43.698Z,102304.59
2022-11-30T01:50:15.591Z,102297.63
2022-11-30T01:52:49.035Z,102305.50
2022-11-30T01:55:24.524Z,102299.41
2022-11-30T01:57:59.584Z,102293.16
2022-11-30T02:00:26.084Z,102308.84
2022-11-30T02:03:03.807Z,102307.75
2022-11-30T02:05:31.658Z,102305.88
2022-11-30T02:07:58.525Z,102313.66
2022-11-30T02:10:32.864Z,102309.19
2022-11-30T02:13:37.771Z,102301.31
2022-11-30T02:16:45.960Z,102309.00
2022-11-30T02:19:52.971Z,102308.16
2022-11-30T02:22:46.625Z,102312.34
2022-11-30T02:25:22.393Z,102318.34
2022-11-30T02:28:04.968Z,102310.56
2022-11-30T02:30:36.863Z,102319.16
2022-11-30T02:33:09.080Z,102314.66
2022-11-30T02:35:41.331Z,102312.88
2022-11-30T02:38:09.994Z,102320.59
2022-11-30T02:40:36.862Z,102311.81
2022-11-30T02:43:06.491Z,102317.88
2022-11-30T02:45:48.904Z,102314.41
2022-11-30T02:48:20.501Z,102320.59
2022-11-30T02:50:56.773Z,102317.88
2022-11-30T02:53:23.749Z,102316.19
2022-11-30T02:55:50.285Z,102321.22
2022-11-30T02:58:17.545Z,102320.41
2022-11-30T03:00:44.424Z,102317.03
2022-11-30T03:03:11.425Z,102327.41
2022-11-30T03:05:41.145Z,102329.81
2022-11-30T03:08:08.612Z,102330.72
2022-11-30T03:10:38.365Z,102335.09
2022-11-30T03:13:05.436Z,102326.41
2022-11-30T03:15:32.039Z,102333.38
2022-11-30T03:18:02.794Z,102326.41
2022-11-30T03:20:29.444Z,102325.53
2022-11-30T03:23:02.626Z,102329.81
2022-11-30T03:25:30.444Z,102330.63
2022-11-30T03:27:57.797Z,102334.91
2022-11-30T03:30:24.300Z,102326.06
2022-11-30T03:32:52.454Z,102332.03
2022-11-30T03:35:19.510Z,102335.38
2022-11-30T03:37:47.521Z,102339.50
2022-11-30T03:40:14.393Z,102334.13
2022-11-30T03:42:41.471Z,102341.00
2022-11-30T03:45:08.288Z,102340.13
2022-11-30T03:47:35.136Z,102335.91
2022-11-30T03:50:01.959Z,102332.34
2022-11-30T03:52:31.312Z,102334.03
2022-11-30T03:54:58.886Z,102339.94
2022-11-30T03:57:26.149Z,102344.13
2022-11-30T03:59:52.946Z,102344.13
2022-11-30T04:02:19.908Z,102349.31
2022-11-30T04:04:46.664Z,102345.75
2022-11-30T04:07:13.347Z,102340.56
2022-11-30T04:09:40.381Z,102347.53
2022-11-30T04:12:07.801Z,102350.22
2022-11-30T04:14:35.143Z,102349.31
2022-11-30T04:17:02.130Z,102354.50
2022-11-30T04:19:28.709Z,102345.75
2022-11-30T04:21:55.493Z,102354.50
2022-11-30T04:24:22.004Z,102351.75
2022-11-30T04:26:48.482Z,102354.34
2022-11-30T04:29:15.730Z,102347.16
2022-11-30T04:31:42.895Z,102347.16
2022-11-30T04:34:09.894Z,102348.06
2022-11-30T04:36:38.972Z,102348.78
2022-11-30T04:39:05.542Z,102354.59
2022-11-30T04:41:32.547Z,102342.25
2022-11-30T04:43:59.770Z,102343.94
2022-11-30T04:46:26.498Z,102348.31
2022-11-30T04:48:54.132Z,102352.41
2022-11-30T04:51:20.715Z,102347.22
2022-11-30T04:53:49.727Z,102342.84
2022-11-30T04:56:16.985Z,102345.53
2022-11-30T04:58:43.449Z,102352.63
2022-11-30T05:01:10.277Z,102342.84
2022-11-30T05:03:37.380Z,102350.84
2022-11-30T05:06:04.440Z,102350.72
2022-11-30T05:08:31.266Z,102351.50
2022-11-30T05:10:58.020Z,102345.44
2022-11-30T05:13:26.102Z,102349.72
2022-11-30T05:15:54.175Z,102347.84
2022-11-30T05:18:21.507Z,102359.91
2022-11-30T05:20:52.891Z,102359.03
2022-11-30T05:23:21.230Z,102352.84
2022-11-30T05:25:47.887Z,102357.16
2022-11-30T05:28:14.755Z,102357.84
2022-11-30T05:30:43.166Z,102355.13
2022-11-30T05:33:10.412Z,102364.66
2022-11-30T05:35:37.642Z,102356.75
2022-11-30T05:38:06.931Z,102355.69
2022-11-30T05:40:33.852Z,102348.69
2022-11-30T05:43:02.114Z,102357.19
2022-11-30T05:45:29.160Z,102352.91
2022-11-30T05:47:55.816Z,102357.09
2022-11-30T05:50:25.049Z,102355.31
2022-11-30T05:52:56.570Z,102355.13
2022-11-30T05:55:28.669Z,102362.81
2022-11-30T05:57:55.569Z,102361.72
2022-11-30T06:00:22.366Z,102369.22
2022-11-30T06:02:49.410Z,102370.84
2022-11-30T06:05:19.801Z,102366.16
2022-11-30T06:07:47.693Z,102372.03
2022-11-30T06:10:14.631Z,102371.88
2022-11-30T06:12:41.377Z,102373.34
2022-11-30T06:15:08.909Z,102367.69
2022-11-30T06:17:37.932Z,102367.41
2022-11-30T06:20:06.378Z,102365.31
2022-11-30T06:22:33.550Z,102373.19
2022-11-30T06:25:00.907Z,102378.88
2022-11-30T06:27:31.571Z,102377.81
2022-11-30T06:29:58.598Z,102381.16
2022-11-30T06:32:28.549Z,102381.00
2022-11-30T06:34:55.545Z,102384.00
2022-11-30T06:37:22.000Z,102379.09
2022-11-30T06:42:36.409Z,102398.94
2022-11-30T06:45:03.804Z,102396.06
2022-11-30T06:47:30.367Z,102388.69
2022-11-30T06:49:58.023Z,102390.16
2022-11-30T06:52:25.420Z,102407.81
2022-11-30T06:54:52.643Z,102400.53
2022-11-30T06:57:19.373Z,102400.22
2022-11-30T06:59:46.764Z,102408.47
2022-11-30T07:02:18.901Z,102411.44
2022-11-30T07:04:46.835Z,102414.59
2022-11-30T07:07:14.281Z,102408.44
2022-11-30T07:09:40.817Z,102407.44
2022-11-30T07:12:08.459Z,102409.91
2022-11-30T07:14:38.176Z,102415.00
2022-11-30T07:17:04.895Z,102421.88
2022-11-30T07:19:32.819Z,102424.34
2022-11-30T07:21:59.499Z,102429.53
2022-11-30T07:24:44.892Z,102430.34
2022-11-30T07:27:11.573Z,102431.09
2022-11-30T07:29:38.272Z,102430.34
2022-11-30T07:32:05.721Z,102441.47
2022-11-30T07:34:33.261Z,102446.75
2022-11-30T07:36:59.877Z,102441.47
2022-11-30T07:39:26.407Z,102440.69
2022-11-30T07:41:53.207Z,102449.66
2022-11-30T07:44:20.183Z,102458.94
2022-11-30T07:46:46.827Z,102455.88
2022-11-30T07:49:13.428Z,102463.06
2022-11-30T07:51:42.707Z,102469.44
2022-11-30T07:54:09.898Z,102462.69
2022-11-30T07:56:36.449Z,102463.28
2022-11-30T07:59:03.894Z,102471.38
2022-11-30T08:01:32.979Z,102478.66
2022-11-30T08:03:59.895Z,102471.09
2022-11-30T08:06:30.981Z,102476.38
2022-11-30T08:09:04.499Z,102475.09
2022-11-30T08:11:34.138Z,102471.19
2022-11-30T08:14:01.957Z,102476.09
2022-11-30T08:16:35.739Z,102477.19
2022-11-30T08:19:04.721Z,102482.78
2022-11-30T08:21:34.176Z,102486.34
2022-11-30T08:24:00.956Z,102488.34
2022-11-30T08:26:32.169Z,102492.16
2022-11-30T08:29:00.528Z,102493.25
2022-11-30T08:31:28.254Z,102496.84
2022-11-30T08:34:00.824Z,102497.53
2022-11-30T08:36:29.103Z,102497.63
2022-11-30T08:38:57.486Z,102499.44
2022-11-30T08:41:24.144Z,102501.81
2022-11-30T08:43:52.023Z,102509.00
2022-11-30T08:49:25.024Z,102494.63
2022-11-30T08:54:46.184Z,102514.47
2022-11-30T08:57:14.867Z,102503.19
2022-11-30T08:59:41.550Z,102506.00
2022-11-30T09:02:11.031Z,102503.59
2022-11-30T09:04:37.718Z,102513.97
2022-11-30T09:07:04.690Z,102515.59
2022-11-30T09:09:31.911Z,102533.75
2022-11-30T09:11:59.149Z,102519.75
2022-11-30T09:14:26.872Z,102524.25
2022-11-30T09:16:54.759Z,102529.53
2022-11-30T09:19:21.860Z,102540.31
2022-11-30T09:21:51.786Z,102535.81
2022-11-30T09:24:20.470Z,102531.81
2022-11-30T09:26:47.564Z,102531.22
2022-11-30T09:29:16.455Z,102526.13
2022-11-30T09:31:42.971Z,102530.00
2022-11-30T09:34:11.667Z,102531.78
2022-11-30T09:36:38.860Z,102520.81
2022-11-30T09:39:06.526Z,102531.72
2022-11-30T09:41:45.175Z,102536.66
2022-11-30T09:44:43.267Z,102537.16
2022-11-30T09:47:47.681Z,102541.97
2022-11-30T09:50:18.579Z,102535.50
2022-11-30T09:53:00.724Z,102534.72
2022-11-30T09:55:36.157Z,102531.09
2022-11-30T09:58:05.467Z,102532.22
2022-11-30T10:00:34.249Z,102536.19
2022-11-30T10:03:07.212Z,102531.94
2022-11-30T10:05:51.380Z,102528.94
2022-11-30T10:08:40.208Z,102529.81
2022-11-30T10:11:34.221Z,102522.28
2022-11-30T10:14:45.921Z,102522.78
2022-11-30T10:17:34.414Z,102516.91
2022-11-30T10:20:29.942Z,102527.78
2022-11-30T10:23:07.979Z,102521.22
2022-11-30T10:25:47.048Z,102527.59
2022-11-30T10:28:45.038Z,102532.88
2022-11-30T10:31:03.910Z,102521.38
2022-11-30T10:33:43.812Z,102523.16
2022-11-30T10:36:15.760Z,102520.25
2022-11-30T10:38:49.892Z,102518.59
2022-11-30T10:41:20.044Z,102520.06
2022-11-30T10:43:57.083Z,102519.81
2022-11-30T10:46:56.716Z,102519.69
2022-11-30T10:49:27.885Z,102519.25
2022-11-30T10:52:00.367Z,102508.84
2022-11-30T10:54:27.301Z,102513.72
2022-11-30T10:56:54.667Z,102511.28
2022-11-30T10:59:38.963Z,102511.47
2022-11-30T11:02:36.352Z,102508.88
2022-11-30T11:05:08.957Z,102505.47
2022-11-30T11:07:46.724Z,102505.50
2022-11-30T11:10:17.017Z,102507.41
2022-11-30T11:12:50.755Z,102506.28
2022-11-30T11:15:35.252Z,102498.25
2022-11-30T11:18:34.777Z,102514.66
2022-11-30T11:21:07.649Z,102510.38
2022-11-30T11:23:38.878Z,102511.75
2022-11-30T11:26:08.976Z,102503.50
2022-11-30T11:28:40.300Z,102498.41
2022-11-30T11:31:40.943Z,102500.09
2022-11-30T11:34:24.486Z,102507.16
2022-11-30T11:37:10.772Z,102506.59
2022-11-30T11:39:46.100Z,102506.41
2022-11-30T11:42:22.130Z,102508.53
2022-11-30T11:44:55.015Z,102507.06
2022-11-30T11:47:44.016Z,102509.44
2022-11-30T11:50:13.503Z,102498.28
2022-11-30T11:52:41.762Z,102509.75
2022-11-30T11:55:18.883Z,102508.56
2022-11-30T11:57:57.234Z,102495.13
2022-11-30T12:00:25.506Z,102510.06
2022-11-30T12:03:14.320Z,102506.56
2022-11-30T12:05:49.828Z,102505.97
2022-11-30T12:08:57.753Z,102505.25
2022-11-30T12:11:40.087Z,102510.88
2022-11-30T12:14:11.281Z,102503.56
2022-11-30T12:16:56.821Z,102504.06
2022-11-30T12:19:35.381Z,102500.34
2022-11-30T12:22:13.885Z,102500.09
2022-11-30T12:25:10.499Z,102505.38
2022-11-30T12:27:53.535Z,102507.63
2022-11-30T12:30:37.333Z,102518.88
2022-11-30T12:33:17.728Z,102511.28
2022-11-30T12:36:05.561Z,102501.78
2022-11-30T12:38:43.643Z,102502.84
2022-11-30T12:41:31.569Z,102513.03
2022-11-30T12:44:22.232Z,102510.25
2022-11-30T12:47:28.994Z,102515.13
2022-11-30T12:50:31.065Z,102505.22
2022-11-30T12:53:12.799Z,102516.97
2022-11-30T12:55:58.083Z,102514.81
2022-11-30T12:58:39.847Z,102512.13
2022-11-30T13:01:32.567Z,102514.38
2022-11-30T13:04:10.857Z,102517.78
2022-11-30T13:06:50.928Z,102521.63
2022-11-30T13:09:17.386Z,102519.03
2022-11-30T13:11:48.875Z,102520.41
2022-11-30T13:14:22.381Z,102522.06
2022-11-30T13:17:02.215Z,102526.53
2022-11-30T13:19:37.149Z,102528.47
2022-11-30T13:22:10.116Z,102527.84
2022-11-30T13:24:42.650Z,102533.78
2022-11-30T13:27:18.963Z,102528.13
2022-11-30T13:30:16.294Z,102527.22
2022-11-30T13:32:59.040Z,102534.88
2022-11-30T13:35:29.179Z,102531.56
2022-11-30T13:38:35.962Z,102534.19
2022-11-30T13:41:06.972Z,102527.63
2022-11-30T13:43:47.794Z,102536.94
2022-11-30T13:46:23.823Z,102533.22
2022-11-30T13:49:16.679Z,102531.34
2022-11-30T13:52:07.041Z,102531.16
2022-11-30T13:54:58.289Z,102535.78
2022-11-30T13:57:24.937Z,102540.34
2022-11-30T14:00:02.195Z,102545.94
2022-11-30T14:02:36.661Z,102547.34
2022-11-30T14:05:21.439Z,102537.50
2022-11-30T14:07:57.814Z,102535.44
2022-11-30T14:10:35.594Z,102535.00
2022-11-30T14:13:03.485Z,102539.84
2022-11-30T14:15:38.959Z,102539.66
2022-11-30T14:18:16.156Z,102549.09
2022-11-30T14:20:51.795Z,102542.00
2022-11-30T14:23:27.078Z,102544.50
2022-11-30T14:25:56.795Z,102551.50
2022-11-30T14:28:40.736Z,102543.50
2022-11-30T14:31:16.354Z,102561.50
2022-11-30T14:34:06.718Z,102570.03
2022-11-30T14:36:46.203Z,102574.16
2022-11-30T14:39:27.441Z,102572.00
2022-11-30T14:41:54.841Z,102570.63
2022-11-30T14:44:21.317Z,102563.38
2022-11-30T14:46:48.526Z,102578.03
2022-11-30T14:49:23.394Z,102573.47
2022-11-30T14:51:54.541Z,102565.41
2022-11-30T14:54:40.789Z,102559.94
2022-11-30T14:57:28.215Z,102567.53
2022-11-30T14:59:56.077Z,102568.25
2022-11-30T15:02:31.082Z,102572.31
2022-11-30T15:04:59.145Z,102573.94
2022-11-30T15:07:27.568Z,102567.75
2022-11-30T15:10:03.730Z,102578.13
2022-11-30T15:12:30.791Z,102575.38
2022-11-30T15:15:16.252Z,102575.44
2022-11-30T15:18:16.494Z,102576.97
2022-11-30T15:20:51.496Z,102586.38
2022-11-30T15:23:18.946Z,102572.59
2022-11-30T15:25:48.528Z,102584.66
2022-11-30T15:28:26.645Z,102576.66
2022-11-30T15:31:01.458Z,102581.00
2022-11-30T15:33:34.586Z,102580.19
2022-11-30T15:38:51.978Z,102579.28
2022-11-30T15:41:24.390Z,102567.19
2022-11-30T15:43:58.790Z,102585.56
2022-11-30T15:46:38.724Z,102577.69
2022-11-30T15:49:15.551Z,102583.84
2022-11-30T15:51:45.781Z,102576.06
2022-11-30T15:54:13.473Z,102585.56
2022-11-30T15:56:40.669Z,102583.59
2022-11-30T15:59:21.992Z,102585.97
2022-11-30T16:02:05.370Z,102580.59
2022-11-30T16:04:57.148Z,102592.88
2022-11-30T16:07:33.157Z,102587.56
2022-11-30T16:10:15.496Z,102597.19
2022-11-30T16:12:43.667Z,102598.75
2022-11-30T16:15:43.816Z,102600.38
2022-11-30T16:18:22.303Z,102604.75
2022-11-30T16:20:55.495Z,102604.75
2022-11-30T16:23:22.102Z,102605.56
2022-11-30T16:25:50.077Z,102607.16
2022-11-30T16:28:18.532Z,102607.16
2022-11-30T16:30:45.972Z,102607.97
2022-11-30T16:33:23.868Z,102608.78
2022-11-30T16:35:56.226Z,102607.97
2022-11-30T16:38:23.756Z,102613.06
2022-11-30T16:40:52.496Z,102617.34
2022-11-30T16:43:19.408Z,102597.28
2022-11-30T16:45:46.862Z,102603.38
2022-11-30T16:48:16.273Z,102607.56
2022-11-30T16:50:44.712Z,102605.59
2022-11-30T16:53:33.440Z,102606.19
2022-11-30T16:56:00.334Z,102624.94
2022-11-30T16:58:29.348Z,102614.94
2022-11-30T17:00:56.688Z,102617.16
2022-11-30T17:03:28.282Z,102623.50
2022-11-30T17:05:55.614Z,102627.41
2022-11-30T17:08:22.553Z,102623.53
2022-11-30T17:10:54.279Z,102630.72
2022-11-30T17:13:22.067Z,102622.63
2022-11-30T17:15:51.381Z,102629.97
2022-11-30T17:18:18.496Z,102639.25
2022-11-30T17:20:46.062Z,102642.34
2022-11-30T17:23:12.677Z,102642.00
2022-11-30T17:25:39.452Z,102640.81
2022-11-30T17:28:06.400Z,102638.00
2022-11-30T17:30:33.046Z,102638.38
2022-11-30T17:33:00.079Z,102642.47
2022-11-30T17:35:26.640Z,102643.81
2022-11-30T17:37:53.738Z,102646.69
2022-11-30T17:40:20.500Z,102650.00
2022-11-30T17:42:47.493Z,102650.47
2022-11-30T17:45:14.570Z,102647.53
2022-11-30T17:47:41.908Z,102651.59
2022-11-30T17:50:09.210Z,102661.75
2022-11-30T17:52:35.857Z,102653.66
2022-11-30T17:55:05.417Z,102655.91
2022-11-30T17:57:32.225Z,102666.09
2022-11-30T17:59:59.083Z,102667.19
2022-11-30T18:02:26.098Z,102668.00
2022-11-30T18:04:53.347Z,102667.78
2022-11-30T18:07:20.406Z,102670.94
2022-11-30T18:09:47.172Z,102670.72
2022-11-30T18:12:14.218Z,102675.47
2022-11-30T18:14:40.872Z,102676.28
2022-11-30T18:17:07.666Z,102683.69
2022-11-30T18:19:34.694Z,102684.38
2022-11-30T18:22:01.334Z,102690.53
2022-11-30T18:24:27.900Z,102691.91
2022-11-30T18:26:54.768Z,102694.03
2022-11-30T18:29:22.581Z,102692.69
2022-11-30T18:31:49.377Z,102699.34
2022-11-30T18:34:16.560Z,102698.09
2022-11-30T18:36:43.397Z,102688.19
2022-11-30T18:39:10.609Z,102696.06
2022-11-30T18:41:37.609Z,102695.88
2022-11-30T18:44:04.920Z,102699.91
2022-11-30T18:46:31.910Z,102701.38
2022-11-30T18:48:59.554Z,102701.13
2022-11-30T18:51:28.934Z,102701.94
2022-11-30T18:53:59.920Z,102704.50
2022-11-30T18:56:29.309Z,102695.72
2022-11-30T18:58:57.966Z,102701.94
2022-11-30T19:01:25.860Z,102712.03
2022-11-30T19:03:57.795Z,102707.53
2022-11-30T19:06:29.512Z,102708.75
2022-11-30T19:08:59.565Z,102711.31
2022-11-30T19:11:26.467Z,102708.63
2022-11-30T19:13:55.113Z,102712.69
2022-11-30T19:16:27.018Z,102714.47
2022-11-30T19:18:54.118Z,102700.31
2022-11-30T19:21:23.009Z,102704.44
2022-11-30T19:23:50.240Z,102704.13
2022-11-30T19:26:17.183Z,102714.09
2022-11-30T19:28:45.016Z,102704.31
2022-11-30T19:31:21.222Z,102703.94
2022-11-30T19:33:51.174Z,102714.97
2022-11-30T19:36:20.885Z,102713.97
2022-11-30T19:38:48.023Z,102705.19
2022-11-30T19:41:15.885Z,102711.94
2022-11-30T19:43:50.914Z,102714.28
2022-11-30T19:46:20.811Z,102709.91
2022-11-30T19:48:47.404Z,102719.06
2022-11-30T19:51:18.369Z,102721.53
2022-11-30T19:53:46.238Z,102732.53
2022-11-30T19:56:16.246Z,102715.91
2022-11-30T19:58:44.986Z,102724.44
2022-11-30T20:01:25.576Z,102723.41
2022-11-30T20:03:54.531Z,102724.97
2022-11-30T20:06:25.294Z,102724.31
2022-11-30T20:08:52.312Z,102724.22
2022-11-30T20:11:19.257Z,102731.41
2022-11-30T20:13:46.352Z,102724.66
2022-11-30T20:16:15.707Z,102732.13
2022-11-30T20:18:46.346Z,102746.41
2022-11-30T20:21:16.903Z,102739.94
2022-11-30T20:23:44.973Z,102735.09
2022-11-30T20:26:23.304Z,102744.88
2022-11-30T20:28:51.724Z,102746.91
2022-11-30T20:31:20.182Z,102751.34
2022-11-30T20:33:47.670Z,102754.25
2022-11-30T20:36:17.853Z,102753.38
2022-11-30T20:38:45.361Z,102743.03
2022-11-30T20:41:16.335Z,102748.63
2022-11-30T20:43:43.920Z,102747.75
2022-11-30T20:46:23.431Z,102752.25
2022-11-30T20:48:50.762Z,102754.06
2022-11-30T20:51:32.513Z,102755.84
2022-11-30T20:54:01.894Z,102752.59
2022-11-30T20:56:28.466Z,102751.81
2022-11-30T20:58:56.015Z,102756.31
2022-11-30T21:01:23.628Z,102757.56
2022-11-30T21:03:52.722Z,102755.22
2022-11-30T21:06:19.309Z,102762.31
2022-11-30T21:08:45.881Z,102756.34
2022-11-30T21:11:15.026Z,102763.56
2022-11-30T21:13:44.449Z,102757.72
2022-11-30T21:16:12.345Z,102777.06
2022-11-30T21:18:41.078Z,102775.72
2022-11-30T21:21:11.505Z,102774.94
2022-11-30T21:23:38.801Z,102770.78
2022-11-30T21:26:12.403Z,102764.91
2022-11-30T21:28:39.100Z,102773.84
2022-11-30T21:31:06.689Z,102768.66
2022-11-30T21:33:33.617Z,102759.31
2022-11-30T21:36:00.282Z,102764.34
2022-11-30T21:38:26.884Z,102760.09
2022-11-30T21:41:00.962Z,102763.47
2022-11-30T21:43:29.142Z,102773.28
2022-11-30T21:45:57.970Z,102760.34
2022-11-30T21:48:24.561Z,102761.13
2022-11-30T21:51:11.397Z,102771.69
2022-11-30T21:53:44.345Z,102768.34
2022-11-30T21:56:14.091Z,102760.78
2022-11-30T21:58:42.724Z,102763.34
2022-11-30T22:01:14.337Z,102773.81
2022-11-30T22:03:41.183Z,102771.69
2022-11-30T22:06:13.322Z,102769.22
2022-11-30T22:08:41.120Z,102768.91
2022-11-30T22:11:13.721Z,102769.66
2022-11-30T22:13:41.264Z,102771.47
2022-11-30T22:16:11.496Z,102769.66
2022-11-30T22:18:39.941Z,102776.75
2022-11-30T22:21:06.345Z,102770.91
2022-11-30T22:23:38.620Z,102776.97
2022-11-30T22:26:09.148Z,102766.75
2022-11-30T22:28:36.122Z,102768.53
2022-11-30T22:31:05.205Z,102776.41
2022-11-30T22:33:34.003Z,102770.25
2022-11-30T22:36:01.620Z,102777.22
2022-11-30T22:38:31.593Z,102778.13
2022-11-30T22:41:10.862Z,102778.25
2022-11-30T22:43:40.562Z,102773.94
2022-11-30T22:46:12.974Z,102768.75
2022-11-30T22:48:40.357Z,102775.53
2022-11-30T22:51:19.415Z,102773.63
2022-11-30T22:53:47.669Z,102778.56
2022-11-30T22:56:26.334Z,102774.06
2022-11-30T22:58:55.794Z,102773.84
2022-11-30T23:01:24.651Z,102777.09
2022-11-30T23:03:53.695Z,102775.38
2022-11-30T23:06:21.352Z,102774.41
2022-11-30T23:08:49.819Z,102775.94
2022-11-30T23:11:20.003Z,102777.75
2022-11-30T23:13:47.105Z,102779.34
2022-11-30T23:16:15.630Z,102781.13
2022-11-30T23:18:48.534Z,102785.84
2022-11-30T23:21:21.262Z,102788.34
2022-11-30T23:23:48.651Z,102785.75
2022-11-30T23:26:16.552Z,102780.34
2022-11-30T23:28:44.697Z,102786.31
2022-11-30T23:31:32.648Z,102785.41
2022-11-30T23:34:03.859Z,102785.63
2022-11-30T23:36:31.188Z,102784.06
2022-11-30T23:39:04.131Z,102781.38
2022-11-30T23:41:31.031Z,102786.53
2022-11-30T23:43:57.867Z,102789.13
2022-11-30T23:46:27.294Z,102795.09
2022-11-30T23:48:55.991Z,102788.22
2022-11-30T23:51:23.765Z,102788.34
2022-11-30T23:53:50.288Z,102791.72
2022-11-30T23:56:18.628Z,102791.72
2022-11-30T23:58:47.559Z,102786.53
